< < Back
Terminal Aerodrome Forecast


Current Version              Previous Versions:   1  2  3  4  5  6  7  8  9  

Terminal Aerodrome Forecast

324
FTUS42 KCHS 230000 AAA
TAFSAV
TAF AMD
KSAV 230043Z 2301/2324 VRB06KT P6SM -SHRA SCT050 BKN080
      TEMPO 2301/2302 VRB20G30KT 2SM +SHRA SCT020 OVC040
     FM230200 VRB04KT P6SM SCT050 BKN100
     FM230900 30005KT 6SM BR SCT006 SCT040
     FM231300 34008KT P6SM SCT040
     FM232100 12008KT P6SM SCT045=

Latest METAR

245
SAUS80 KWBC 230700 RRA
MTRSAV
METAR KSAV 230653Z AUTO 27005KT 6SM BR CLR 17/16 A2981 RMK AO2 SLP095
T01720156 TSNO


USA.gov is the U.S. government's official web portal to all federal, state and local government web resources and services.